Windsor Airport
CYQG : rendu visible

Aérodrome :











RETROUVEZ-NOUS SUR...

 
LOGIN :

S'inscrire | Disclaimer

   EN    FR    IT 

 









Légende :    VFR   VFR Marginal   IFR   IFR Intensif   IFR Très Intensif
Visi : 
Plafond : 
>= 8 km
>= 3000ft
5 à 8 km
1000 à 3000 ft
1500m à 5 km
500 à 1000 ft
800 à 1500m
200 à 500 ft
< 800m
< 200 ft
Symboles :   Orages  Brouillard  Fortes neiges  Fortes précipitations  Vent > 20 kt






- Altitude de l'aérodrome : 622 ft
- Code IATA : YQG


CYQG - Windsor

DERNIER METAR :
  • 212300Z AUTO 22009KT 9SM CLR M04/M09 A3048 RMK SLP335

METARs EXPIRÉS :
  • 212200Z AUTO 22013KT 9SM CLR M03/M09 A3049 RMK SLP335
  • 212100Z AUTO 23007KT 9SM CLR M02/M09 A3050 RMK SLP339

TAF TAF CYQG
Valide du 22 à 00h jusqu'au 23 à 00h UTC


212338Z 2200/2224 23008KT P6SM BKN190
PROB30 2208/2213 BKN005
FM221500 22012KT P6SM FEW008
FM221700 21012G22KT P6SM BKN220 RMK FCST BASED ON AUTO OBS. NXT FCST BY 220600Z



MET'MAP, la Météo Aéronautique d'un coup d'oeil ! - Copyright ORBIFLY Décembre 2007 - Disclaimer

ORBIFLY MET'MAP TEAM :

Programmation & Développement : Alexandra Zaïnal
Sur une idée originale de : Baudouin d'Aumeries
Assistance à la programmation : Marc-Olivier Méhu
Soutien technique & logistique : Manuel Goepfert

Contact : metmap@orbifly.com




SOURCES & CREDITS :

   NOAA       Earth
Advisory